sensor_id;sensor_type;location;lat;lon;timestamp;pressure;altitude;pressure_sealevel;temperature;humidity
59971;BME280;45825;45.434;9.116;2023-07-31T00:01:40;99940.72;;;26.39;100.00
59971;BME280;45825;45.434;9.116;2023-07-31T00:04:06;99933.75;;;26.51;100.00
59971;BME280;45825;45.434;9.116;2023-07-31T00:06:31;99927.28;;;26.45;100.00
59971;BME280;45825;45.434;9.116;2023-07-31T00:08:56;99928.38;;;26.01;100.00
59971;BME280;45825;45.434;9.116;2023-07-31T00:11:21;99936.38;;;26.16;100.00
59971;BME280;45825;45.434;9.116;2023-07-31T00:13:47;99937.34;;;26.30;100.00
59971;BME280;45825;45.434;9.116;2023-07-31T00:16:12;99942.19;;;26.41;100.00
59971;BME280;45825;45.434;9.116;2023-07-31T00:18:38;99939.50;;;26.41;100.00
59971;BME280;45825;45.434;9.116;2023-07-31T00:21:03;99949.44;;;26.41;100.00
59971;BME280;45825;45.434;9.116;2023-07-31T00:23:28;99951.38;;;25.97;100.00
59971;BME280;45825;45.434;9.116;2023-07-31T00:25:53;99945.19;;;26.03;100.00
59971;BME280;45825;45.434;9.116;2023-07-31T00:28:19;99951.03;;;26.28;100.00
59971;BME280;45825;45.434;9.116;2023-07-31T00:30:44;99946.53;;;26.35;100.00
59971;BME280;45825;45.434;9.116;2023-07-31T00:33:09;99949.69;;;26.46;100.00
59971;BME280;45825;45.434;9.116;2023-07-31T00:35:35;99956.53;;;26.48;100.00
59971;BME280;45825;45.434;9.116;2023-07-31T00:38:00;99954.69;;;26.49;100.00
59971;BME280;45825;45.434;9.116;2023-07-31T00:40:25;99950.38;;;26.26;100.00
59971;BME280;45825;45.434;9.116;2023-07-31T00:42:51;99950.72;;;25.94;100.00
59971;BME280;45825;45.434;9.116;2023-07-31T00:45:16;99946.81;;;26.19;100.00
59971;BME280;45825;45.434;9.116;2023-07-31T00:47:41;99947.47;;;26.28;100.00
59971;BME280;45825;45.434;9.116;2023-07-31T00:50:07;99952.13;;;26.41;100.00
59971;BME280;45825;45.434;9.116;2023-07-31T00:52:32;99951.50;;;26.39;100.00
59971;BME280;45825;45.434;9.116;2023-07-31T00:54:58;99947.41;;;26.49;100.00
59971;BME280;45825;45.434;9.116;2023-07-31T00:57:24;99957.88;;;26.59;100.00
59971;BME280;45825;45.434;9.116;2023-07-31T00:59:49;99944.59;;;26.29;100.00
59971;BME280;45825;45.434;9.116;2023-07-31T01:02:14;99944.97;;;25.98;100.00
59971;BME280;45825;45.434;9.116;2023-07-31T01:04:42;99947.66;;;26.19;100.00
59971;BME280;45825;45.434;9.116;2023-07-31T01:07:34;99953.28;;;26.25;100.00
59971;BME280;45825;45.434;9.116;2023-07-31T01:10:11;99949.81;;;26.31;100.00
59971;BME280;45825;45.434;9.116;2023-07-31T01:12:41;99950.63;;;26.31;100.00
59971;BME280;45825;45.434;9.116;2023-07-31T01:15:08;99945.09;;;25.89;100.00
59971;BME280;45825;45.434;9.116;2023-07-31T01:17:37;99952.00;;;25.99;100.00
59971;BME280;45825;45.434;9.116;2023-07-31T01:20:05;99956.41;;;26.28;100.00
59971;BME280;45825;45.434;9.116;2023-07-31T01:26:03;99944.44;;;26.38;100.00
59971;BME280;45825;45.434;9.116;2023-07-31T01:31:07;99953.00;;;26.41;100.00
59971;BME280;45825;45.434;9.116;2023-07-31T01:33:33;99940.69;;;25.82;100.00
59971;BME280;45825;45.434;9.116;2023-07-31T01:36:00;99951.00;;;25.78;100.00
59971;BME280;45825;45.434;9.116;2023-07-31T01:38:25;99946.03;;;26.03;100.00
59971;BME280;45825;45.434;9.116;2023-07-31T01:40:52;99954.19;;;26.10;100.00
59971;BME280;45825;45.434;9.116;2023-07-31T01:43:18;99945.69;;;26.13;100.00
59971;BME280;45825;45.434;9.116;2023-07-31T01:45:43;99946.31;;;26.15;100.00
59971;BME280;45825;45.434;9.116;2023-07-31T01:48:08;99941.78;;;26.16;100.00
59971;BME280;45825;45.434;9.116;2023-07-31T01:50:34;99947.09;;;25.59;100.00
59971;BME280;45825;45.434;9.116;2023-07-31T01:52:59;99946.50;;;25.85;100.00
59971;BME280;45825;45.434;9.116;2023-07-31T01:55:24;99945.72;;;25.91;100.00
59971;BME280;45825;45.434;9.116;2023-07-31T01:57:50;99937.91;;;25.97;100.00
59971;BME280;45825;45.434;9.116;2023-07-31T02:00:15;99927.13;;;25.97;100.00
59971;BME280;45825;45.434;9.116;2023-07-31T02:02:40;99937.69;;;25.98;100.00
59971;BME280;45825;45.434;9.116;2023-07-31T02:05:06;99940.44;;;26.05;100.00
59971;BME280;45825;45.434;9.116;2023-07-31T02:07:31;99937.09;;;25.37;100.00
59971;BME280;45825;45.434;9.116;2023-07-31T02:09:56;99938.34;;;25.57;100.00
59971;BME280;45825;45.434;9.116;2023-07-31T02:12:22;99938.88;;;25.67;100.00
59971;BME280;45825;45.434;9.116;2023-07-31T02:14:47;99940.41;;;25.76;100.00
59971;BME280;45825;45.434;9.116;2023-07-31T02:17:12;99938.28;;;25.72;100.00
59971;BME280;45825;45.434;9.116;2023-07-31T02:19:37;99947.78;;;25.67;100.00
59971;BME280;45825;45.434;9.116;2023-07-31T02:22:03;99938.91;;;25.52;100.00
59971;BME280;45825;45.434;9.116;2023-07-31T02:24:28;99940.88;;;25.06;100.00
59971;BME280;45825;45.434;9.116;2023-07-31T02:26:54;99946.19;;;25.36;100.00
59971;BME280;45825;45.434;9.116;2023-07-31T02:29:19;99945.06;;;25.46;100.00
59971;BME280;45825;45.434;9.116;2023-07-31T02:31:44;99940.16;;;25.49;100.00
59971;BME280;45825;45.434;9.116;2023-07-31T02:34:10;99937.97;;;25.60;100.00
59971;BME280;45825;45.434;9.116;2023-07-31T02:36:35;99942.91;;;25.56;100.00
59971;BME280;45825;45.434;9.116;2023-07-31T02:39:00;99935.88;;;25.03;100.00
59971;BME280;45825;45.434;9.116;2023-07-31T02:41:25;99943.09;;;25.03;100.00
59971;BME280;45825;45.434;9.116;2023-07-31T02:43:51;99930.28;;;25.20;100.00
59971;BME280;45825;45.434;9.116;2023-07-31T02:46:19;99929.59;;;25.33;100.00
59971;BME280;45825;45.434;9.116;2023-07-31T02:48:44;99931.31;;;25.41;100.00
59971;BME280;45825;45.434;9.116;2023-07-31T02:51:10;99932.56;;;25.38;100.00
59971;BME280;45825;45.434;9.116;2023-07-31T02:53:35;99930.88;;;25.37;100.00
59971;BME280;45825;45.434;9.116;2023-07-31T02:56:01;99936.56;;;25.27;100.00
59971;BME280;45825;45.434;9.116;2023-07-31T02:58:26;99936.63;;;24.67;100.00
59971;BME280;45825;45.434;9.116;2023-07-31T03:00:51;99934.69;;;24.91;100.00
59971;BME280;45825;45.434;9.116;2023-07-31T03:03:16;99944.97;;;25.02;100.00
59971;BME280;45825;45.434;9.116;2023-07-31T03:05:42;99944.66;;;25.12;100.00
59971;BME280;45825;45.434;9.116;2023-07-31T03:08:07;99943.28;;;25.16;100.00
59971;BME280;45825;45.434;9.116;2023-07-31T03:10:32;99943.28;;;25.16;100.00
59971;BME280;45825;45.434;9.116;2023-07-31T03:12:58;99937.13;;;25.22;100.00
59971;BME280;45825;45.434;9.116;2023-07-31T03:15:23;99947.66;;;24.72;100.00
59971;BME280;45825;45.434;9.116;2023-07-31T03:17:48;99944.06;;;24.80;100.00
59971;BME280;45825;45.434;9.116;2023-07-31T03:20:13;99937.72;;;25.03;100.00
59971;BME280;45825;45.434;9.116;2023-07-31T03:22:39;99937.06;;;25.16;100.00
59971;BME280;45825;45.434;9.116;2023-07-31T03:25:04;99938.16;;;25.21;100.00
59971;BME280;45825;45.434;9.116;2023-07-31T03:27:30;99944.63;;;25.27;100.00
59971;BME280;45825;45.434;9.116;2023-07-31T03:29:55;99943.16;;;25.24;100.00
59971;BME280;45825;45.434;9.116;2023-07-31T03:32:20;99936.94;;;25.24;100.00
59971;BME280;45825;45.434;9.116;2023-07-31T03:34:46;99938.38;;;24.60;100.00
59971;BME280;45825;45.434;9.116;2023-07-31T03:37:14;99934.63;;;24.84;100.00
59971;BME280;45825;45.434;9.116;2023-07-31T03:39:39;99945.38;;;24.99;100.00
59971;BME280;45825;45.434;9.116;2023-07-31T03:42:05;99935.50;;;25.06;100.00
59971;BME280;45825;45.434;9.116;2023-07-31T03:44:30;99944.09;;;25.17;100.00
59971;BME280;45825;45.434;9.116;2023-07-31T03:46:55;99940.66;;;25.23;100.00
59971;BME280;45825;45.434;9.116;2023-07-31T03:49:21;99950.88;;;25.28;100.00
59971;BME280;45825;45.434;9.116;2023-07-31T03:51:46;99944.16;;;24.87;100.00
59971;BME280;45825;45.434;9.116;2023-07-31T03:54:11;99952.75;;;24.52;100.00
59971;BME280;45825;45.434;9.116;2023-07-31T03:56:38;99956.13;;;24.84;100.00
59971;BME280;45825;45.434;9.116;2023-07-31T03:59:03;99952.13;;;24.95;100.00
59971;BME280;45825;45.434;9.116;2023-07-31T04:01:29;99965.47;;;25.03;100.00
59971;BME280;45825;45.434;9.116;2023-07-31T04:03:54;99964.75;;;25.09;100.00
59971;BME280;45825;45.434;9.116;2023-07-31T04:06:19;99962.22;;;25.08;100.00
59971;BME280;45825;45.434;9.116;2023-07-31T04:08:45;99957.97;;;24.83;100.00
59971;BME280;45825;45.434;9.116;2023-07-31T04:11:10;99957.50;;;24.50;100.00
59971;BME280;45825;45.434;9.116;2023-07-31T04:13:36;99962.22;;;24.63;100.00
59971;BME280;45825;45.434;9.116;2023-07-31T04:16:01;99964.56;;;24.81;100.00
59971;BME280;45825;45.434;9.116;2023-07-31T04:18:27;99966.34;;;24.89;100.00
59971;BME280;45825;45.434;9.116;2023-07-31T04:20:52;99962.25;;;24.93;100.00
59971;BME280;45825;45.434;9.116;2023-07-31T04:23:18;99968.91;;;24.97;100.00
59971;BME280;45825;45.434;9.116;2023-07-31T04:25:43;99961.75;;;25.04;100.00
59971;BME280;45825;45.434;9.116;2023-07-31T04:28:08;99959.44;;;24.56;100.00
59971;BME280;45825;45.434;9.116;2023-07-31T04:30:34;99967.13;;;24.74;100.00
59971;BME280;45825;45.434;9.116;2023-07-31T04:32:59;99962.88;;;24.95;100.00
59971;BME280;45825;45.434;9.116;2023-07-31T04:35:24;99964.06;;;25.07;100.00
59971;BME280;45825;45.434;9.116;2023-07-31T04:37:50;99962.69;;;25.11;100.00
59971;BME280;45825;45.434;9.116;2023-07-31T04:40:15;99971.41;;;25.14;100.00
59971;BME280;45825;45.434;9.116;2023-07-31T04:42:41;99974.47;;;25.10;100.00
59971;BME280;45825;45.434;9.116;2023-07-31T04:45:08;99965.78;;;24.93;100.00
59971;BME280;45825;45.434;9.116;2023-07-31T04:47:33;99977.41;;;24.70;100.00
59971;BME280;45825;45.434;9.116;2023-07-31T04:49:59;99971.81;;;24.95;100.00
59971;BME280;45825;45.434;9.116;2023-07-31T04:52:24;99977.91;;;25.04;100.00
59971;BME280;45825;45.434;9.116;2023-07-31T04:54:49;99983.84;;;25.15;100.00
59971;BME280;45825;45.434;9.116;2023-07-31T04:57:14;99989.69;;;25.18;100.00
59971;BME280;45825;45.434;9.116;2023-07-31T04:59:40;99993.47;;;25.24;100.00
59971;BME280;45825;45.434;9.116;2023-07-31T05:02:07;99992.13;;;25.35;100.00
59971;BME280;45825;45.434;9.116;2023-07-31T05:04:33;99998.06;;;24.93;100.00
59971;BME280;45825;45.434;9.116;2023-07-31T05:06:58;100000.94;;;24.92;100.00
59971;BME280;45825;45.434;9.116;2023-07-31T05:09:23;100001.41;;;24.95;100.00
59971;BME280;45825;45.434;9.116;2023-07-31T05:11:49;99997.94;;;25.17;100.00
59971;BME280;45825;45.434;9.116;2023-07-31T05:14:14;100005.34;;;25.30;100.00
59971;BME280;45825;45.434;9.116;2023-07-31T05:16:40;100016.00;;;25.38;100.00
59971;BME280;45825;45.434;9.116;2023-07-31T05:19:06;100018.03;;;25.51;100.00
59971;BME280;45825;45.434;9.116;2023-07-31T05:21:31;100019.13;;;25.57;100.00
59971;BME280;45825;45.434;9.116;2023-07-31T05:23:56;100016.09;;;25.60;100.00
59971;BME280;45825;45.434;9.116;2023-07-31T05:26:22;100017.03;;;25.74;100.00
59971;BME280;45825;45.434;9.116;2023-07-31T05:28:47;100021.69;;;25.80;100.00
59971;BME280;45825;45.434;9.116;2023-07-31T05:31:12;100019.03;;;25.87;100.00
59971;BME280;45825;45.434;9.116;2023-07-31T05:33:38;100027.72;;;26.04;100.00
59971;BME280;45825;45.434;9.116;2023-07-31T05:36:03;100017.38;;;26.07;100.00
59971;BME280;45825;45.434;9.116;2023-07-31T05:38:28;100017.84;;;26.11;100.00
59971;BME280;45825;45.434;9.116;2023-07-31T05:40:54;100011.88;;;26.16;100.00
59971;BME280;45825;45.434;9.116;2023-07-31T05:43:20;100019.41;;;26.20;100.00
59971;BME280;45825;45.434;9.116;2023-07-31T05:45:45;100028.75;;;26.25;100.00
59971;BME280;45825;45.434;9.116;2023-07-31T05:48:10;100030.81;;;26.22;100.00
59971;BME280;45825;45.434;9.116;2023-07-31T05:50:35;100026.75;;;26.33;100.00
59971;BME280;45825;45.434;9.116;2023-07-31T05:53:04;100026.63;;;26.42;100.00
59971;BME280;45825;45.434;9.116;2023-07-31T05:55:29;100030.38;;;26.47;100.00
59971;BME280;45825;45.434;9.116;2023-07-31T05:57:54;100034.44;;;26.58;100.00
59971;BME280;45825;45.434;9.116;2023-07-31T06:00:20;100029.25;;;26.63;100.00
59971;BME280;45825;45.434;9.116;2023-07-31T06:02:46;100028.06;;;26.73;100.00
59971;BME280;45825;45.434;9.116;2023-07-31T06:05:12;100029.56;;;26.75;100.00
59971;BME280;45825;45.434;9.116;2023-07-31T06:07:37;100025.56;;;26.71;100.00
59971;BME280;45825;45.434;9.116;2023-07-31T06:10:03;100023.53;;;26.73;100.00
59971;BME280;45825;45.434;9.116;2023-07-31T06:12:31;100034.94;;;26.75;100.00
59971;BME280;45825;45.434;9.116;2023-07-31T06:14:57;100033.50;;;26.80;100.00
59971;BME280;45825;45.434;9.116;2023-07-31T06:17:22;100038.72;;;26.81;100.00
59971;BME280;45825;45.434;9.116;2023-07-31T06:19:49;100041.38;;;26.74;100.00
59971;BME280;45825;45.434;9.116;2023-07-31T06:22:14;100046.41;;;26.84;100.00
59971;BME280;45825;45.434;9.116;2023-07-31T06:24:40;100049.53;;;26.81;100.00
59971;BME280;45825;45.434;9.116;2023-07-31T06:27:06;100053.28;;;26.87;100.00
59971;BME280;45825;45.434;9.116;2023-07-31T06:29:31;100052.03;;;26.83;100.00
59971;BME280;45825;45.434;9.116;2023-07-31T06:31:56;100058.06;;;26.85;100.00
59971;BME280;45825;45.434;9.116;2023-07-31T06:34:22;100052.41;;;26.80;100.00
59971;BME280;45825;45.434;9.116;2023-07-31T06:36:47;100050.09;;;26.76;100.00
59971;BME280;45825;45.434;9.116;2023-07-31T06:39:12;100044.09;;;26.74;100.00
59971;BME280;45825;45.434;9.116;2023-07-31T06:41:38;100051.78;;;26.49;100.00
59971;BME280;45825;45.434;9.116;2023-07-31T06:44:03;100041.19;;;26.47;100.00
59971;BME280;45825;45.434;9.116;2023-07-31T06:46:29;100043.91;;;26.54;100.00
59971;BME280;45825;45.434;9.116;2023-07-31T06:48:54;100035.94;;;26.68;100.00
59971;BME280;45825;45.434;9.116;2023-07-31T06:51:20;100026.59;;;26.70;100.00
59971;BME280;45825;45.434;9.116;2023-07-31T06:53:45;100033.50;;;26.80;100.00
59971;BME280;45825;45.434;9.116;2023-07-31T06:56:10;100033.97;;;26.83;100.00
59971;BME280;45825;45.434;9.116;2023-07-31T06:58:36;100039.44;;;26.90;100.00
59971;BME280;45825;45.434;9.116;2023-07-31T07:01:01;100042.69;;;26.85;100.00
59971;BME280;45825;45.434;9.116;2023-07-31T07:03:27;100045.66;;;26.90;100.00
59971;BME280;45825;45.434;9.116;2023-07-31T07:05:52;100039.50;;;26.75;97.86
59971;BME280;45825;45.434;9.116;2023-07-31T07:08:17;100053.94;;;26.89;99.19
59971;BME280;45825;45.434;9.116;2023-07-31T07:10:43;100052.19;;;26.74;97.19
59971;BME280;45825;45.434;9.116;2023-07-31T07:13:08;100054.84;;;26.68;95.05
59971;BME280;45825;45.434;9.116;2023-07-31T07:15:33;100049.38;;;26.61;95.46
59971;BME280;45825;45.434;9.116;2023-07-31T07:17:58;100035.72;;;26.69;97.19
59971;BME280;45825;45.434;9.116;2023-07-31T07:20:24;100037.06;;;26.80;96.02
59971;BME280;45825;45.434;9.116;2023-07-31T07:22:49;100039.22;;;26.91;96.63
59971;BME280;45825;45.434;9.116;2023-07-31T07:25:14;100044.25;;;27.01;94.32
59971;BME280;45825;45.434;9.116;2023-07-31T07:27:40;100042.66;;;27.14;92.38
59971;BME280;45825;45.434;9.116;2023-07-31T07:30:05;100044.84;;;26.97;91.39
59971;BME280;45825;45.434;9.116;2023-07-31T07:32:31;100044.25;;;27.01;93.44
59971;BME280;45825;45.434;9.116;2023-07-31T07:34:56;100055.63;;;26.90;90.54
59971;BME280;45825;45.434;9.116;2023-07-31T07:37:21;100049.88;;;27.00;92.74
59971;BME280;45825;45.434;9.116;2023-07-31T07:39:47;100052.84;;;27.12;91.57
59971;BME280;45825;45.434;9.116;2023-07-31T07:42:12;100047.44;;;27.12;87.90
59971;BME280;45825;45.434;9.116;2023-07-31T07:44:37;100054.03;;;27.02;87.45
59971;BME280;45825;45.434;9.116;2023-07-31T07:47:03;100055.41;;;27.27;89.20
59971;BME280;45825;45.434;9.116;2023-07-31T07:49:30;100040.53;;;27.44;87.49
59971;BME280;45825;45.434;9.116;2023-07-31T07:51:56;100040.31;;;27.53;85.41
59971;BME280;45825;45.434;9.116;2023-07-31T07:54:21;100047.59;;;27.45;84.91
59971;BME280;45825;45.434;9.116;2023-07-31T07:56:46;100043.38;;;27.29;84.79
59971;BME280;45825;45.434;9.116;2023-07-31T07:59:12;100045.22;;;27.29;84.27
59971;BME280;45825;45.434;9.116;2023-07-31T08:01:37;100055.53;;;27.12;84.19
59971;BME280;45825;45.434;9.116;2023-07-31T08:04:02;100052.44;;;27.15;84.79
59971;BME280;45825;45.434;9.116;2023-07-31T08:06:28;100048.91;;;27.14;84.53
59971;BME280;45825;45.434;9.116;2023-07-31T08:08:54;100053.75;;;27.32;85.37
59971;BME280;45825;45.434;9.116;2023-07-31T08:11:20;100061.41;;;27.22;84.88
59971;BME280;45825;45.434;9.116;2023-07-31T08:13:47;100061.72;;;27.47;86.20
59971;BME280;45825;45.434;9.116;2023-07-31T08:16:12;100063.16;;;27.37;83.85
59971;BME280;45825;45.434;9.116;2023-07-31T08:18:37;100067.06;;;27.34;82.34
59971;BME280;45825;45.434;9.116;2023-07-31T08:21:03;100060.38;;;27.30;81.67
59971;BME280;45825;45.434;9.116;2023-07-31T08:23:28;100064.75;;;27.31;81.53
59971;BME280;45825;45.434;9.116;2023-07-31T08:25:53;100066.94;;;27.49;79.67
59971;BME280;45825;45.434;9.116;2023-07-31T08:28:19;100064.13;;;27.64;78.27
59971;BME280;45825;45.434;9.116;2023-07-31T08:30:44;100056.00;;;27.64;77.67
59971;BME280;45825;45.434;9.116;2023-07-31T08:33:10;100052.44;;;27.57;76.96
59971;BME280;45825;45.434;9.116;2023-07-31T08:35:36;100054.13;;;27.65;79.68
59971;BME280;45825;45.434;9.116;2023-07-31T08:38:01;100049.78;;;27.77;80.33
59971;BME280;45825;45.434;9.116;2023-07-31T08:40:26;100044.00;;;27.80;78.57
59971;BME280;45825;45.434;9.116;2023-07-31T08:42:55;100035.38;;;27.56;77.69
59971;BME280;45825;45.434;9.116;2023-07-31T08:45:21;100032.06;;;27.61;75.91
59971;BME280;45825;45.434;9.116;2023-07-31T08:47:49;100038.75;;;27.58;73.33
59971;BME280;45825;45.434;9.116;2023-07-31T08:50:18;100035.31;;;27.43;71.98
59971;BME280;45825;45.434;9.116;2023-07-31T08:52:45;100029.63;;;27.66;76.27
59971;BME280;45825;45.434;9.116;2023-07-31T08:55:10;100029.44;;;27.81;77.11
59971;BME280;45825;45.434;9.116;2023-07-31T08:57:38;100026.09;;;27.79;75.30
59971;BME280;45825;45.434;9.116;2023-07-31T09:00:07;100028.56;;;27.67;74.72
59971;BME280;45825;45.434;9.116;2023-07-31T09:07:45;100026.31;;;27.84;74.12
59971;BME280;45825;45.434;9.116;2023-07-31T09:10:12;100039.66;;;28.06;75.12
59971;BME280;45825;45.434;9.116;2023-07-31T09:12:38;100035.72;;;28.09;75.06
59971;BME280;45825;45.434;9.116;2023-07-31T09:15:04;100044.66;;;28.09;71.85
59971;BME280;45825;45.434;9.116;2023-07-31T09:17:31;100036.53;;;28.09;73.21
59971;BME280;45825;45.434;9.116;2023-07-31T09:19:57;100041.16;;;28.22;73.64
59971;BME280;45825;45.434;9.116;2023-07-31T09:22:41;100037.59;;;28.28;73.16
59971;BME280;45825;45.434;9.116;2023-07-31T09:25:20;100041.16;;;28.42;72.05
59971;BME280;45825;45.434;9.116;2023-07-31T09:30:22;100029.88;;;28.79;72.39
59971;BME280;45825;45.434;9.116;2023-07-31T09:32:48;100037.59;;;28.89;71.23
59971;BME280;45825;45.434;9.116;2023-07-31T09:35:22;100035.28;;;28.93;71.10
59971;BME280;45825;45.434;9.116;2023-07-31T09:37:57;100040.50;;;28.61;71.09
59971;BME280;45825;45.434;9.116;2023-07-31T09:40:31;100039.72;;;28.40;71.35
59971;BME280;45825;45.434;9.116;2023-07-31T09:42:58;100051.16;;;28.55;72.13
59971;BME280;45825;45.434;9.116;2023-07-31T09:45:24;100048.41;;;28.76;71.55
59971;BME280;45825;45.434;9.116;2023-07-31T09:47:50;100032.38;;;28.81;71.09
59971;BME280;45825;45.434;9.116;2023-07-31T09:50:15;100037.75;;;29.01;71.18
59971;BME280;45825;45.434;9.116;2023-07-31T09:52:43;100033.09;;;29.22;71.19
59971;BME280;45825;45.434;9.116;2023-07-31T09:55:09;100025.81;;;29.22;69.50
59971;BME280;45825;45.434;9.116;2023-07-31T09:57:40;100029.50;;;29.41;69.28
59971;BME280;45825;45.434;9.116;2023-07-31T10:00:07;100024.88;;;29.55;67.50
59971;BME280;45825;45.434;9.116;2023-07-31T10:02:34;100026.63;;;29.30;66.19
59971;BME280;45825;45.434;9.116;2023-07-31T10:05:02;100017.06;;;29.20;67.58
59971;BME280;45825;45.434;9.116;2023-07-31T10:07:30;100010.22;;;29.18;67.54
59971;BME280;45825;45.434;9.116;2023-07-31T10:09:57;100017.16;;;28.93;69.18
59971;BME280;45825;45.434;9.116;2023-07-31T10:12:26;100014.81;;;29.10;67.91
59971;BME280;45825;45.434;9.116;2023-07-31T10:14:54;100010.81;;;29.26;67.95
59971;BME280;45825;45.434;9.116;2023-07-31T10:17:21;100012.81;;;29.45;66.98
59971;BME280;45825;45.434;9.116;2023-07-31T10:19:48;100015.81;;;29.75;66.02
59971;BME280;45825;45.434;9.116;2023-07-31T10:22:14;100006.25;;;29.98;66.02
59971;BME280;45825;45.434;9.116;2023-07-31T10:24:41;99999.53;;;30.01;64.73
59971;BME280;45825;45.434;9.116;2023-07-31T10:27:08;100003.47;;;30.11;64.64
59971;BME280;45825;45.434;9.116;2023-07-31T10:29:35;100005.94;;;30.38;63.75
59971;BME280;45825;45.434;9.116;2023-07-31T10:32:01;100003.06;;;30.33;61.96
59971;BME280;45825;45.434;9.116;2023-07-31T10:34:27;99989.22;;;30.42;62.12
59971;BME280;45825;45.434;9.116;2023-07-31T10:37:46;99980.09;;;30.55;62.05
59971;BME280;45825;45.434;9.116;2023-07-31T10:40:16;99980.09;;;30.55;62.06
59971;BME280;45825;45.434;9.116;2023-07-31T10:42:50;99979.78;;;30.88;61.30
59971;BME280;45825;45.434;9.116;2023-07-31T10:45:43;99968.56;;;31.15;59.57
59971;BME280;45825;45.434;9.116;2023-07-31T10:48:13;99965.72;;;31.10;58.62
59971;BME280;45825;45.434;9.116;2023-07-31T10:50:48;99979.00;;;30.62;59.43
59971;BME280;45825;45.434;9.116;2023-07-31T10:53:29;99970.06;;;30.80;60.84
59971;BME280;45825;45.434;9.116;2023-07-31T10:56:01;99969.50;;;31.09;60.21
59971;BME280;45825;45.434;9.116;2023-07-31T10:58:27;99971.28;;;31.34;59.72
59971;BME280;45825;45.434;9.116;2023-07-31T11:00:57;99969.34;;;31.53;59.31
59971;BME280;45825;45.434;9.116;2023-07-31T11:03:40;99976.69;;;31.64;57.21
59971;BME280;45825;45.434;9.116;2023-07-31T11:06:06;99955.41;;;31.49;56.32
59971;BME280;45825;45.434;9.116;2023-07-31T11:08:36;99975.84;;;31.95;56.17
59971;BME280;45825;45.434;9.116;2023-07-31T11:11:08;99971.72;;;32.04;55.99
59971;BME280;45825;45.434;9.116;2023-07-31T11:13:48;99965.56;;;32.32;56.83
59971;BME280;45825;45.434;9.116;2023-07-31T11:16:15;99980.88;;;32.45;55.29
59971;BME280;45825;45.434;9.116;2023-07-31T11:18:45;99974.59;;;32.09;54.79
59971;BME280;45825;45.434;9.116;2023-07-31T11:21:15;99970.06;;;32.03;54.75
59971;BME280;45825;45.434;9.116;2023-07-31T11:23:41;99965.22;;;32.29;53.95
59971;BME280;45825;45.434;9.116;2023-07-31T11:26:07;99957.94;;;32.41;51.96
59971;BME280;45825;45.434;9.116;2023-07-31T11:28:34;99956.47;;;32.27;52.32
59971;BME280;45825;45.434;9.116;2023-07-31T11:31:00;99949.72;;;32.29;53.21
59971;BME280;45825;45.434;9.116;2023-07-31T11:33:25;99947.25;;;32.16;52.88
59971;BME280;45825;45.434;9.116;2023-07-31T11:35:51;99948.41;;;31.84;52.51
59971;BME280;45825;45.434;9.116;2023-07-31T11:38:30;99948.66;;;31.95;54.21
59971;BME280;45825;45.434;9.116;2023-07-31T11:41:01;99943.94;;;32.02;53.55
59971;BME280;45825;45.434;9.116;2023-07-31T11:43:32;99935.22;;;32.36;53.09
59971;BME280;45825;45.434;9.116;2023-07-31T11:46:00;99937.03;;;32.71;53.08
59971;BME280;45825;45.434;9.116;2023-07-31T11:48:30;99937.19;;;32.52;52.36
59971;BME280;45825;45.434;9.116;2023-07-31T11:51:00;99937.69;;;32.25;53.26
59971;BME280;45825;45.434;9.116;2023-07-31T11:53:33;99927.50;;;32.21;53.01
59971;BME280;45825;45.434;9.116;2023-07-31T11:56:00;99930.81;;;32.23;54.14
59971;BME280;45825;45.434;9.116;2023-07-31T11:58:27;99912.72;;;32.93;51.72
59971;BME280;45825;45.434;9.116;2023-07-31T12:00:53;99915.22;;;32.95;50.71
59971;BME280;45825;45.434;9.116;2023-07-31T12:03:18;99912.06;;;32.62;51.07
59971;BME280;45825;45.434;9.116;2023-07-31T12:05:47;99911.19;;;32.44;51.66
59971;BME280;45825;45.434;9.116;2023-07-31T12:08:12;99909.97;;;32.64;51.05
59971;BME280;45825;45.434;9.116;2023-07-31T12:10:38;99901.59;;;32.83;51.78
59971;BME280;45825;45.434;9.116;2023-07-31T12:13:10;99900.22;;;33.09;50.64
59971;BME280;45825;45.434;9.116;2023-07-31T12:15:43;99895.81;;;33.20;49.82
59971;BME280;45825;45.434;9.116;2023-07-31T12:18:18;99900.47;;;33.54;49.28
59971;BME280;45825;45.434;9.116;2023-07-31T12:20:45;99892.00;;;33.50;49.05
59971;BME280;45825;45.434;9.116;2023-07-31T12:23:21;99892.03;;;32.80;49.74
59971;BME280;45825;45.434;9.116;2023-07-31T12:26:13;99887.41;;;32.81;50.86
59971;BME280;45825;45.434;9.116;2023-07-31T12:28:50;99877.16;;;32.71;49.72
59971;BME280;45825;45.434;9.116;2023-07-31T12:33:42;99869.47;;;33.26;48.63
59971;BME280;45825;45.434;9.116;2023-07-31T12:36:10;99865.81;;;33.49;48.65
59971;BME280;45825;45.434;9.116;2023-07-31T12:38:35;99859.59;;;33.54;47.77
59971;BME280;45825;45.434;9.116;2023-07-31T12:41:01;99856.78;;;33.49;48.03
59971;BME280;45825;45.434;9.116;2023-07-31T12:43:26;99850.44;;;33.14;48.93
59971;BME280;45825;45.434;9.116;2023-07-31T12:45:53;99845.59;;;32.87;49.65
59971;BME280;45825;45.434;9.116;2023-07-31T12:48:19;99840.22;;;33.04;49.09
59971;BME280;45825;45.434;9.116;2023-07-31T12:50:44;99844.25;;;33.01;48.89
59971;BME280;45825;45.434;9.116;2023-07-31T12:53:09;99838.25;;;33.16;48.18
59971;BME280;45825;45.434;9.116;2023-07-31T12:55:35;99828.09;;;33.29;48.76
59971;BME280;45825;45.434;9.116;2023-07-31T12:58:03;99831.97;;;32.87;49.74
59971;BME280;45825;45.434;9.116;2023-07-31T13:00:29;99829.66;;;33.08;48.41
59971;BME280;45825;45.434;9.116;2023-07-31T13:02:54;99823.38;;;33.07;48.17
59971;BME280;45825;45.434;9.116;2023-07-31T13:05:20;99820.22;;;32.98;48.20